createdAt,value
2023-01-28T00:02:07.344Z,98787.06
2023-01-28T00:06:13.365Z,98786.19
2023-01-28T00:10:15.907Z,98791.31
2023-01-28T00:14:17.911Z,98785.28
2023-01-28T00:18:20.129Z,98794.75
2023-01-28T00:22:22.443Z,98788.75
2023-01-28T00:26:25.410Z,98793.06
2023-01-28T00:30:27.421Z,98783.63
2023-01-28T00:34:29.501Z,98783.59
2023-01-28T00:38:31.521Z,98784.47
2023-01-28T00:42:34.113Z,98789.63
2023-01-28T00:46:36.217Z,98787.03
2023-01-28T00:50:39.355Z,98782.72
2023-01-28T00:54:41.378Z,98782.72
2023-01-28T00:58:44.026Z,98786.13
2023-01-28T01:02:47.535Z,98777.44
2023-01-28T01:06:49.605Z,98771.34
2023-01-28T01:10:51.611Z,98779.06
2023-01-28T01:14:53.644Z,98773.03
2023-01-28T01:18:56.607Z,98774.72
2023-01-28T01:22:58.794Z,98774.69
2023-01-28T01:27:02.076Z,98772.03
2023-01-28T01:31:10.622Z,98772.84
2023-01-28T01:35:13.091Z,98770.19
2023-01-28T01:39:15.407Z,98769.28
2023-01-28T01:43:19.954Z,98772.63
2023-01-28T01:47:26.543Z,98799.34
2023-01-28T01:51:32.655Z,98800.28
2023-01-28T01:55:38.243Z,98802.09
2023-01-28T01:59:42.446Z,98809.00
2023-01-28T02:03:56.657Z,98816.78
2023-01-28T02:08:19.655Z,98804.75
2023-01-28T02:12:27.082Z,98809.94
2023-01-28T02:16:30.962Z,98805.63
2023-01-28T02:20:51.274Z,98816.06
2023-01-28T02:25:26.832Z,98811.78
2023-01-28T02:29:41.999Z,98816.84
2023-01-28T02:34:11.231Z,98813.47
2023-01-28T02:38:21.330Z,98815.19
2023-01-28T02:42:41.900Z,98819.56
2023-01-28T02:47:02.716Z,98824.78
2023-01-28T02:51:32.609Z,98829.88
2023-01-28T02:55:53.705Z,98825.56
2023-01-28T03:00:04.131Z,98831.59
2023-01-28T03:04:20.720Z,98834.09
2023-01-28T03:08:43.582Z,98836.72
2023-01-28T03:13:09.712Z,98837.56
2023-01-28T03:17:37.905Z,98840.09
2023-01-28T03:22:01.187Z,98840.09
2023-01-28T03:26:27.530Z,98853.06
2023-01-28T03:31:08.184Z,98847.91
2023-01-28T03:35:39.034Z,98854.75
2023-01-28T03:39:41.352Z,98858.19
2023-01-28T03:43:45.527Z,98858.16
2023-01-28T03:47:47.931Z,98858.13
2023-01-28T03:51:50.762Z,98856.34
2023-01-28T03:55:54.701Z,98869.31
2023-01-28T03:59:56.816Z,98867.59
2023-01-28T04:03:59.126Z,98853.75
2023-01-28T04:08:02.829Z,98864.03
2023-01-28T04:12:30.812Z,98844.25
2023-01-28T04:16:32.953Z,98863.13
2023-01-28T04:20:36.034Z,98865.84
2023-01-28T04:24:38.456Z,98866.69
2023-01-28T04:28:40.563Z,98869.25
2023-01-28T04:32:42.646Z,98869.28
2023-01-28T04:37:03.161Z,98871.88
2023-01-28T04:41:20.966Z,98871.84
2023-01-28T04:45:24.193Z,98863.25
2023-01-28T04:49:36.312Z,98867.47
2023-01-28T04:53:49.431Z,98875.25
2023-01-28T04:58:04.257Z,98875.28
2023-01-28T05:02:08.000Z,98880.41
2023-01-28T05:06:10.429Z,98873.50
2023-01-28T05:10:19.322Z,98876.16
2023-01-28T05:14:21.436Z,98874.47
2023-01-28T05:18:30.375Z,98865.06
2023-01-28T05:22:48.089Z,98877.09
2023-01-28T05:27:03.162Z,98878.00
2023-01-28T05:31:06.905Z,98882.31
2023-01-28T05:35:09.402Z,98894.31
2023-01-28T05:39:11.503Z,98894.25
2023-01-28T05:43:14.535Z,98901.06
2023-01-28T05:47:36.403Z,98912.97
2023-01-28T05:51:57.040Z,98900.00
2023-01-28T05:55:59.891Z,98902.69
2023-01-28T06:00:05.564Z,98908.72
2023-01-28T06:04:18.889Z,98919.91
2023-01-28T06:08:21.156Z,98928.41
2023-01-28T06:12:23.458Z,98931.91
2023-01-28T06:16:45.530Z,98931.84
2023-01-28T06:21:06.180Z,98947.34
2023-01-28T06:25:08.654Z,98938.78
2023-01-28T06:29:10.725Z,98941.38
2023-01-28T06:33:12.765Z,98945.72
2023-01-28T06:37:15.427Z,98943.97
2023-01-28T06:41:17.516Z,98943.97
2023-01-28T06:45:19.627Z,98948.19
2023-01-28T06:49:22.004Z,98952.50
2023-01-28T06:53:24.265Z,98949.16
2023-01-28T06:57:26.256Z,98959.47
2023-01-28T07:01:28.374Z,98956.03
2023-01-28T07:05:30.503Z,98961.13
2023-01-28T07:09:32.480Z,98960.34
2023-01-28T07:13:34.632Z,98964.59
2023-01-28T07:17:40.814Z,98973.19
2023-01-28T07:21:42.815Z,98976.56
2023-01-28T07:25:44.817Z,98972.22
2023-01-28T07:29:46.833Z,98981.75
2023-01-28T07:33:48.891Z,98978.25
2023-01-28T07:37:55.508Z,98988.56
2023-01-28T07:41:57.525Z,98979.06
2023-01-28T07:46:13.154Z,98984.25
2023-01-28T07:50:16.113Z,98991.97
2023-01-28T07:54:18.354Z,98990.13
2023-01-28T07:58:20.430Z,98994.38
2023-01-28T08:02:22.485Z,98998.75
2023-01-28T08:06:24.601Z,99009.19
2023-01-28T08:10:26.652Z,99004.91
2023-01-28T08:14:28.782Z,99009.25
2023-01-28T08:18:30.813Z,99004.16
2023-01-28T08:22:32.796Z,99008.75
2023-01-28T08:26:34.880Z,99012.91
2023-01-28T08:30:38.809Z,99006.81
2023-01-28T08:34:40.900Z,99008.56
2023-01-28T08:38:43.445Z,99014.44
2023-01-28T08:42:50.071Z,99014.38
2023-01-28T08:46:52.064Z,99021.19
2023-01-28T08:50:58.681Z,99019.63
2023-01-28T08:55:00.735Z,99016.22
2023-01-28T08:59:02.773Z,99023.25
2023-01-28T09:03:06.342Z,99030.19
2023-01-28T09:07:08.632Z,99028.38
2023-01-28T09:11:10.643Z,99025.00
2023-01-28T09:15:12.911Z,99026.66
2023-01-28T09:19:15.793Z,99037.75
2023-01-28T09:23:18.075Z,99032.56
2023-01-28T09:27:20.160Z,99035.06
2023-01-28T09:31:22.556Z,99036.66
2023-01-28T09:35:24.716Z,99040.19
2023-01-28T09:39:28.440Z,99051.47
2023-01-28T09:43:54.450Z,99051.66
2023-01-28T09:48:00.600Z,99058.56
2023-01-28T09:52:03.440Z,99062.59
2023-01-28T09:56:11.496Z,99058.25
2023-01-28T10:00:20.182Z,99068.59
2023-01-28T10:04:40.965Z,99065.16
2023-01-28T10:08:42.952Z,99066.03
2023-01-28T10:13:07.600Z,99085.94
2023-01-28T10:17:28.528Z,99080.78
2023-01-28T10:21:40.759Z,99080.06
2023-01-28T10:25:45.114Z,99081.84
2023-01-28T10:29:49.948Z,99074.19
2023-01-28T10:33:52.009Z,99076.75
2023-01-28T10:38:01.590Z,99075.06
2023-01-28T10:42:17.679Z,99082.88
2023-01-28T10:46:24.638Z,99081.19
2023-01-28T10:50:28.368Z,99087.38
2023-01-28T10:54:30.271Z,99083.78
2023-01-28T10:58:36.358Z,99075.97
2023-01-28T11:02:38.425Z,99075.94
2023-01-28T11:06:40.486Z,99082.97
2023-01-28T11:10:43.824Z,99089.13
2023-01-28T11:14:57.827Z,99082.28
2023-01-28T11:19:04.886Z,99080.50
2023-01-28T11:23:07.098Z,99080.09
2023-01-28T11:27:16.449Z,99073.00
2023-01-28T11:31:21.319Z,99071.91
2023-01-28T11:35:30.912Z,99066.69
2023-01-28T11:39:33.106Z,99072.13
2023-01-28T11:43:35.286Z,99069.53
2023-01-28T11:48:04.439Z,99076.44
2023-01-28T11:52:48.652Z,99067.97
2023-01-28T11:57:24.391Z,99074.78
2023-01-28T12:01:52.453Z,99056.84
2023-01-28T12:06:03.833Z,99057.88
2023-01-28T12:10:20.176Z,99058.00
2023-01-28T12:14:36.460Z,99050.19
2023-01-28T12:18:59.974Z,99036.47
2023-01-28T12:23:31.347Z,99035.81
2023-01-28T12:28:03.293Z,99032.50
2023-01-28T12:32:50.503Z,99031.00
2023-01-28T12:37:05.131Z,99033.53
2023-01-28T12:41:27.829Z,99029.81
2023-01-28T12:45:40.566Z,99027.13
2023-01-28T12:49:48.428Z,99027.19
2023-01-28T12:53:57.135Z,99020.13
2023-01-28T12:57:59.459Z,99030.53
2023-01-28T13:02:13.846Z,99034.59
2023-01-28T13:06:24.034Z,99032.88
2023-01-28T13:10:40.669Z,99038.25
2023-01-28T13:14:44.411Z,99042.53
2023-01-28T13:18:46.905Z,99049.19
2023-01-28T13:23:01.626Z,99051.81
2023-01-28T13:27:21.662Z,99054.38
2023-01-28T13:31:24.409Z,99057.09
2023-01-28T13:35:34.311Z,99053.75
2023-01-28T13:39:37.015Z,99059.00
2023-01-28T13:43:42.150Z,99050.41
2023-01-28T13:47:48.132Z,99055.66
2023-01-28T13:52:17.717Z,99060.94
2023-01-28T13:56:28.612Z,99060.09
2023-01-28T14:01:11.683Z,99064.41
2023-01-28T14:05:36.821Z,99064.53
2023-01-28T14:09:48.091Z,99061.03
2023-01-28T14:14:21.647Z,99065.19
2023-01-28T14:18:32.582Z,99069.56
2023-01-28T14:22:36.091Z,99070.47
2023-01-28T14:26:50.554Z,99072.97
2023-01-28T14:31:02.337Z,99062.50
2023-01-28T14:35:09.748Z,99060.72
2023-01-28T14:39:27.164Z,99052.53
2023-01-28T14:43:31.367Z,99051.59
2023-01-28T14:47:36.500Z,99050.66
2023-01-28T14:52:15.078Z,99054.81
2023-01-28T14:56:26.235Z,99059.09
2023-01-28T15:00:31.060Z,99053.72
2023-01-28T15:04:35.749Z,99052.88
2023-01-28T15:08:40.111Z,99045.13
2023-01-28T15:12:47.824Z,99056.13
2023-01-28T15:16:50.626Z,99038.81
2023-01-28T15:20:55.144Z,99020.75
2023-01-28T15:24:57.446Z,99026.66
2023-01-28T15:29:00.430Z,99040.38
2023-01-28T15:33:05.867Z,99042.97
2023-01-28T15:37:10.877Z,99037.72
2023-01-28T15:41:13.089Z,99046.31
2023-01-28T15:45:21.133Z,99051.34
2023-01-28T15:49:27.434Z,99039.19
2023-01-28T15:53:34.781Z,99042.63
2023-01-28T15:57:36.846Z,99046.00
2023-01-28T16:01:38.938Z,99049.47
2023-01-28T16:05:42.737Z,99059.63
2023-01-28T16:09:50.836Z,99080.09
2023-01-28T16:13:53.741Z,99062.91
2023-01-28T16:17:55.803Z,99069.75
2023-01-28T16:21:58.071Z,99071.31
2023-01-28T16:26:24.389Z,99085.75
2023-01-28T16:30:26.891Z,99084.88
2023-01-28T16:34:29.066Z,99086.28
2023-01-28T16:38:31.236Z,99084.41
2023-01-28T16:42:33.471Z,99086.19
2023-01-28T16:46:35.588Z,99088.94
2023-01-28T16:50:42.536Z,99090.13
2023-01-28T16:54:47.556Z,99089.63
2023-01-28T16:58:49.638Z,99083.84
2023-01-28T17:02:53.337Z,99088.16
2023-01-28T17:06:55.453Z,99100.31
2023-01-28T17:10:57.590Z,99099.53
2023-01-28T17:14:59.704Z,99109.78
2023-01-28T17:19:01.918Z,99086.59
2023-01-28T17:23:06.136Z,99086.69
2023-01-28T17:27:09.708Z,99079.75
2023-01-28T17:31:14.084Z,99092.50
2023-01-28T17:35:16.774Z,99091.56
2023-01-28T17:39:19.087Z,99111.16
2023-01-28T17:43:21.294Z,99128.00
2023-01-28T17:47:23.384Z,99133.84
2023-01-28T17:51:25.488Z,99127.84
2023-01-28T17:55:27.705Z,99132.25
2023-01-28T17:59:29.938Z,99150.41
2023-01-28T18:03:32.067Z,99165.94
2023-01-28T18:07:34.503Z,99163.28
2023-01-28T18:11:36.672Z,99168.19
2023-01-28T18:15:38.740Z,99172.59
2023-01-28T18:19:40.861Z,99183.19
2023-01-28T18:23:44.039Z,99187.69
2023-01-28T18:27:46.328Z,99189.72
2023-01-28T18:31:48.849Z,99202.69
2023-01-28T18:35:51.099Z,99201.00
2023-01-28T18:39:53.281Z,99187.31
2023-01-28T18:43:55.426Z,99184.16
2023-01-28T18:47:57.508Z,99186.94
2023-01-28T18:51:59.800Z,99182.81
2023-01-28T18:56:06.611Z,99174.28
2023-01-28T19:00:09.388Z,99176.16
2023-01-28T19:04:11.656Z,99189.84
2023-01-28T19:08:13.806Z,99190.63
2023-01-28T19:12:15.910Z,99207.78
2023-01-28T19:16:18.763Z,99187.91
2023-01-28T19:20:20.919Z,99199.00
2023-01-28T19:24:23.121Z,99204.97
2023-01-28T19:28:25.417Z,99197.97
2023-01-28T19:32:27.925Z,99190.19
2023-01-28T19:36:33.096Z,99182.59
2023-01-28T19:40:40.187Z,99183.44
2023-01-28T19:44:42.287Z,99181.53
2023-01-28T19:48:45.481Z,99189.13
2023-01-28T19:52:47.651Z,99210.44
2023-01-28T19:56:49.820Z,99211.09
2023-01-28T20:00:51.938Z,99209.34
2023-01-28T20:05:00.610Z,99211.94
2023-01-28T20:09:13.943Z,99210.88
2023-01-28T20:13:16.275Z,99208.97
2023-01-28T20:17:18.528Z,99220.72
2023-01-28T20:21:21.856Z,99218.78
2023-01-28T20:25:23.925Z,99226.44
2023-01-28T20:29:26.143Z,99216.31
2023-01-28T20:33:28.621Z,99214.66
2023-01-28T20:37:30.826Z,99214.06
2023-01-28T20:41:32.923Z,99228.66
2023-01-28T20:45:35.560Z,99210.72
2023-01-28T20:49:38.315Z,99220.47
2023-01-28T20:53:41.070Z,99217.16
2023-01-28T20:57:44.993Z,99229.34
2023-01-28T21:01:47.333Z,99226.69
2023-01-28T21:05:50.044Z,99223.31
2023-01-28T21:09:52.568Z,99229.22
2023-01-28T21:13:55.557Z,99218.09
2023-01-28T21:17:58.006Z,99207.59
2023-01-28T21:22:00.095Z,99216.09
2023-01-28T21:26:04.712Z,99220.31
2023-01-28T21:30:07.639Z,99223.34
2023-01-28T21:34:10.445Z,99221.41
2023-01-28T21:38:12.622Z,99211.84
2023-01-28T21:42:15.692Z,99220.31
2023-01-28T21:46:17.776Z,99214.09
2023-01-28T21:50:20.691Z,99213.47
2023-01-28T21:54:22.775Z,99212.72
2023-01-28T21:58:43.533Z,99205.22
2023-01-28T22:02:45.649Z,99208.75
2023-01-28T22:06:49.293Z,99211.25
2023-01-28T22:10:51.464Z,99213.81
2023-01-28T22:14:53.605Z,99205.25
2023-01-28T22:18:55.717Z,99205.34
2023-01-28T22:22:57.758Z,99208.06
2023-01-28T22:26:59.957Z,99199.47
2023-01-28T22:31:10.133Z,99203.88
2023-01-28T22:35:12.303Z,99202.13
2023-01-28T22:39:16.213Z,99199.53
2023-01-28T22:43:18.377Z,99191.97
2023-01-28T22:47:20.469Z,99195.41
2023-01-28T22:51:25.589Z,99185.31
2023-01-28T22:55:27.988Z,99188.09
2023-01-28T22:59:30.128Z,99175.25
2023-01-28T23:03:33.018Z,99175.28
2023-01-28T23:07:35.219Z,99180.34
2023-01-28T23:11:37.354Z,99176.50
2023-01-28T23:15:58.046Z,99173.00
2023-01-28T23:20:18.616Z,99180.84
2023-01-28T23:24:21.366Z,99173.25
2023-01-28T23:28:23.621Z,99183.38
2023-01-28T23:32:26.420Z,99178.59
2023-01-28T23:36:28.568Z,99187.09
2023-01-28T23:40:30.659Z,99179.50
2023-01-28T23:44:32.663Z,99197.63
2023-01-28T23:48:34.673Z,99185.38
2023-01-28T23:52:36.768Z,99192.94
2023-01-28T23:56:39.351Z,99188.75
